Time;durP1;ratioP1;P1;durP2;ratioP2;P2;SDS_P1;SDS_P2;PMS_P1;PMS_P2;Temp;Humidity;BMP_temperature;BMP_pressure;BME280_temperature;BME280_humidity;BME280_pressure;Samples;Min_cycle;Max_cycle;Signal;HPM_P1;HPM_P2
2023/03/29 00:00:44;;;;;;;8.13;4.33;;;4.90;99.90;;;;;;4868335;29;20044;-74
2023/03/29 00:03:11;;;;;;;6.33;4.10;;;4.90;99.90;;;;;;4866753;29;20295;-74
2023/03/29 00:05:39;;;;;;;5.57;3.72;;;4.90;99.90;;;;;;4888952;29;20092;-74
2023/03/29 00:08:06;;;;;;;6.25;4.00;;;4.90;99.90;;;;;;4868534;29;20052;-74
2023/03/29 00:10:32;;;;;;;8.15;3.88;;;4.90;99.90;;;;;;4877247;29;20044;-73
2023/03/29 00:12:59;;;;;;;6.43;4.30;;;4.90;99.90;;;;;;4881958;29;20092;-74
2023/03/29 00:15:25;;;;;;;6.68;3.50;;;4.90;99.90;;;;;;4876086;29;20071;-74
2023/03/29 00:17:51;;;;;;;6.77;4.33;;;4.90;99.90;;;;;;4867685;29;20080;-74
2023/03/29 00:20:17;;;;;;;8.10;3.78;;;4.90;99.90;;;;;;4867448;29;20303;-74
2023/03/29 00:22:45;;;;;;;7.07;4.10;;;4.90;99.90;;;;;;4880037;29;20438;-74
2023/03/29 00:25:12;;;;;;;6.60;3.90;;;4.90;99.90;;;;;;4861230;29;20043;-73
2023/03/29 00:27:38;;;;;;;8.02;3.70;;;4.90;99.90;;;;;;4885676;29;20044;-74
2023/03/29 00:30:06;;;;;;;10.43;3.75;;;4.90;99.90;;;;;;4885040;29;20132;-74
2023/03/29 00:32:32;;;;;;;6.43;3.78;;;4.90;99.90;;;;;;4871200;29;20094;-74
2023/03/29 00:35:03;;;;;;;6.50;3.70;;;4.90;99.90;;;;;;4888014;29;20067;-74
2023/03/29 00:37:29;;;;;;;7.05;4.15;;;4.90;99.90;;;;;;4887362;29;20068;-74
2023/03/29 00:39:56;;;;;;;6.63;4.00;;;4.90;99.90;;;;;;4868740;29;20498;-74
2023/03/29 00:42:23;;;;;;;7.30;3.85;;;4.90;99.90;;;;;;4872349;29;20068;-74
2023/03/29 00:45:20;;;;;;;5.97;3.50;;;4.90;99.90;;;;;;4882356;29;20066;-74
2023/03/29 00:48:03;;;;;;;6.10;3.63;;;4.90;99.90;;;;;;4886509;29;20045;-74
2023/03/29 00:50:35;;;;;;;13.30;4.10;;;4.80;99.90;;;;;;4880316;29;20518;-74
2023/03/29 00:53:12;;;;;;;6.63;4.03;;;4.80;99.90;;;;;;4884957;29;20044;-73
2023/03/29 00:56:01;;;;;;;7.75;3.65;;;4.80;99.90;;;;;;4871797;29;20513;-73
2023/03/29 00:58:36;;;;;;;5.28;3.65;;;4.80;99.90;;;;;;4816228;29;20056;-74
2023/03/29 01:01:09;;;;;;;8.48;3.50;;;4.80;99.90;;;;;;4886523;29;20517;-74
2023/03/29 01:03:45;;;;;;;6.15;3.72;;;4.70;99.90;;;;;;4884767;29;20501;-73
2023/03/29 01:06:13;;;;;;;7.37;3.50;;;4.70;99.90;;;;;;4883443;29;20068;-73
2023/03/29 01:08:44;;;;;;;5.43;3.47;;;4.80;99.90;;;;;;4875771;29;20285;-73
2023/03/29 01:11:16;;;;;;;5.70;3.05;;;4.80;99.90;;;;;;4875841;29;20152;-74
2023/03/29 01:13:57;;;;;;;8.48;3.17;;;4.80;99.90;;;;;;4862690;29;20067;-74
2023/03/29 01:16:27;;;;;;;8.63;3.05;;;4.80;99.90;;;;;;4859078;29;20048;-74
2023/03/29 01:18:53;;;;;;;6.28;3.22;;;4.80;99.90;;;;;;4883062;29;20099;-74
2023/03/29 01:21:43;;;;;;;6.22;2.70;;;4.80;99.90;;;;;;4883928;29;20048;-74
2023/03/29 01:24:27;;;;;;;7.93;3.13;;;4.80;99.90;;;;;;4882665;29;20033;-73
2023/03/29 01:27:14;;;;;;;4.90;2.65;;;4.80;99.90;;;;;;4861723;29;20056;-74
2023/03/29 01:29:56;;;;;;;6.68;2.60;;;4.90;99.90;;;;;;4867974;29;20557;-74
2023/03/29 01:32:34;;;;;;;5.22;2.42;;;4.90;99.90;;;;;;4883610;29;20069;-74
2023/03/29 01:35:17;;;;;;;5.95;2.95;;;4.80;99.90;;;;;;4884228;29;20037;-74
2023/03/29 01:37:57;;;;;;;4.85;2.10;;;4.90;99.90;;;;;;4867124;29;20032;-74
2023/03/29 01:40:26;;;;;;;5.70;2.67;;;4.90;99.90;;;;;;4882465;29;20040;-74
2023/03/29 01:43:22;;;;;;;5.72;2.40;;;4.80;99.90;;;;;;4868703;29;20036;-73
2023/03/29 01:46:00;;;;;;;5.05;2.53;;;4.80;99.90;;;;;;4879623;29;20120;-74
2023/03/29 01:48:52;;;;;;;5.13;2.58;;;4.80;99.90;;;;;;4870507;29;20044;-74
2023/03/29 01:51:36;;;;;;;4.53;2.63;;;4.80;99.90;;;;;;4868228;29;20568;-74
2023/03/29 01:54:16;;;;;;;4.72;2.40;;;4.80;99.90;;;;;;4884101;29;20058;-74
2023/03/29 01:56:45;;;;;;;4.97;2.28;;;4.80;99.90;;;;;;4856691;29;20045;-74
2023/03/29 01:59:16;;;;;;;3.85;2.40;;;4.80;99.90;;;;;;4868393;29;20072;-74
2023/03/29 02:01:48;;;;;;;5.65;2.03;;;4.80;99.90;;;;;;4867743;29;20047;-74
2023/03/29 02:04:19;;;;;;;6.10;2.03;;;4.80;99.90;;;;;;4862970;29;20056;-74
2023/03/29 02:06:46;;;;;;;3.67;2.00;;;4.80;99.90;;;;;;4860714;29;20123;-74
2023/03/29 02:09:13;;;;;;;3.40;2.00;;;4.80;99.90;;;;;;4881483;29;20064;-74
2023/03/29 02:11:40;;;;;;;4.45;2.15;;;4.80;99.90;;;;;;4865957;29;20052;-74
2023/03/29 02:14:06;;;;;;;3.97;2.20;;;4.80;99.90;;;;;;4880388;29;20059;-73
2023/03/29 02:16:36;;;;;;;5.83;2.23;;;4.80;99.90;;;;;;4884772;29;20052;-73
2023/03/29 02:19:02;;;;;;;5.43;2.40;;;4.80;99.90;;;;;;4885707;29;20091;-74
2023/03/29 02:22:08;;;;;;;4.75;2.28;;;4.80;99.90;;;;;;4886627;29;20148;-73
2023/03/29 02:24:35;;;;;;;5.95;2.88;;;4.80;99.90;;;;;;4882717;29;20048;-73
2023/03/29 02:27:02;;;;;;;4.68;2.20;;;4.80;99.90;;;;;;4883722;29;20041;-73
2023/03/29 02:29:28;;;;;;;4.32;2.45;;;4.80;99.90;;;;;;4870627;29;20135;-73
2023/03/29 02:32:24;;;;;;;4.87;2.37;;;4.80;99.90;;;;;;4885033;29;20469;-73
2023/03/29 02:35:12;;;;;;;6.60;2.60;;;4.80;99.90;;;;;;4877679;29;20087;-73
2023/03/29 02:37:41;;;;;;;4.38;2.25;;;4.80;99.90;;;;;;4884662;29;20032;-73
2023/03/29 02:40:11;;;;;;;5.43;2.58;;;4.80;99.90;;;;;;4879503;29;20119;-73
2023/03/29 02:42:43;;;;;;;8.63;3.30;;;4.80;99.90;;;;;;4884904;29;20104;-73
2023/03/29 02:45:12;;;;;;;3.97;2.60;;;4.80;99.90;;;;;;4885509;29;20045;-74
2023/03/29 02:47:43;;;;;;;6.53;2.63;;;4.80;99.90;;;;;;4869901;29;20060;-73
2023/03/29 02:50:09;;;;;;;7.30;2.80;;;4.90;99.90;;;;;;4875212;29;20048;-74
2023/03/29 02:52:40;;;;;;;5.03;2.92;;;4.90;99.90;;;;;;4860093;29;20041;-74
2023/03/29 02:55:13;;;;;;;6.47;2.88;;;4.90;99.90;;;;;;4896438;29;20124;-73
2023/03/29 02:57:41;;;;;;;6.25;3.00;;;4.90;99.90;;;;;;4881337;29;20049;-74
2023/03/29 03:00:09;;;;;;;7.80;2.80;;;4.90;99.90;;;;;;4872431;29;20047;-74
2023/03/29 03:02:37;;;;;;;7.43;3.20;;;4.90;99.90;;;;;;4871982;29;20040;-74
2023/03/29 03:05:04;;;;;;;7.75;2.55;;;4.90;99.90;;;;;;4871441;29;20128;-74
2023/03/29 03:07:30;;;;;;;7.35;3.22;;;4.90;99.90;;;;;;4885447;29;20274;-74
2023/03/29 03:09:56;;;;;;;4.77;2.63;;;4.90;99.90;;;;;;4861706;29;20040;-74
2023/03/29 03:12:22;;;;;;;5.72;3.00;;;4.90;99.90;;;;;;4877027;29;20053;-74
2023/03/29 03:14:48;;;;;;;8.02;3.30;;;4.90;99.90;;;;;;4888091;29;20036;-74
2023/03/29 03:17:14;;;;;;;4.57;2.70;;;4.90;99.90;;;;;;4888134;29;20220;-74
2023/03/29 03:19:39;;;;;;;4.37;2.50;;;4.90;99.90;;;;;;4885561;29;20052;-74
2023/03/29 03:22:06;;;;;;;4.33;3.03;;;4.90;99.90;;;;;;4867580;29;20048;-73
2023/03/29 03:24:32;;;;;;;5.25;3.25;;;4.90;99.90;;;;;;4865743;29;20040;-74
2023/03/29 03:26:58;;;;;;;5.40;3.28;;;4.90;99.90;;;;;;4887268;29;20688;-74
2023/03/29 03:29:24;;;;;;;5.23;3.40;;;4.90;99.90;;;;;;4880530;29;20051;-74
2023/03/29 03:31:54;;;;;;;5.35;3.35;;;4.90;99.90;;;;;;4887410;29;20116;-74
2023/03/29 03:34:20;;;;;;;6.68;2.95;;;4.90;99.90;;;;;;4869623;29;20067;-74
2023/03/29 03:36:46;;;;;;;5.33;2.97;;;4.90;99.90;;;;;;4885991;29;20045;-74
2023/03/29 03:39:12;;;;;;;7.40;3.50;;;4.90;99.90;;;;;;4871623;29;20293;-74
2023/03/29 03:41:38;;;;;;;7.28;3.30;;;4.90;99.90;;;;;;4870143;29;20096;-74
2023/03/29 03:44:04;;;;;;;6.45;3.45;;;4.90;99.90;;;;;;4884875;29;20100;-73
2023/03/29 03:46:30;;;;;;;7.03;3.50;;;4.90;99.90;;;;;;4880643;29;20075;-73
2023/03/29 03:48:56;;;;;;;6.77;3.40;;;4.90;99.90;;;;;;4867861;29;20425;-74
2023/03/29 03:51:22;;;;;;;6.57;3.42;;;5.00;99.90;;;;;;4876670;29;20931;-74
2023/03/29 03:53:48;;;;;;;7.57;3.83;;;5.00;99.90;;;;;;4882294;29;20138;-73
2023/03/29 03:56:15;;;;;;;6.82;3.28;;;5.00;99.90;;;;;;4880808;29;20112;-74
2023/03/29 03:58:40;;;;;;;6.03;3.70;;;5.00;99.90;;;;;;4867869;29;20044;-74
2023/03/29 04:01:07;;;;;;;6.67;3.30;;;5.00;99.90;;;;;;4903633;29;20039;-74
2023/03/29 04:03:33;;;;;;;7.07;3.70;;;5.00;99.90;;;;;;4882451;29;20482;-74
2023/03/29 04:06:00;;;;;;;6.60;3.37;;;4.90;99.90;;;;;;4883860;29;20120;-74
2023/03/29 04:08:26;;;;;;;7.03;3.17;;;5.00;99.90;;;;;;4882744;29;20168;-74
2023/03/29 04:10:54;;;;;;;7.55;3.80;;;5.00;99.90;;;;;;4882709;29;20028;-74
2023/03/29 04:13:21;;;;;;;7.65;3.85;;;5.00;99.90;;;;;;4865528;29;20121;-73
2023/03/29 04:15:52;;;;;;;7.10;4.00;;;5.00;99.90;;;;;;4877658;29;20135;-73
2023/03/29 04:18:20;;;;;;;8.82;4.07;;;5.00;99.90;;;;;;4883564;29;20063;-74
2023/03/29 04:20:46;;;;;;;7.20;3.95;;;5.00;99.90;;;;;;4898192;29;20084;-74
2023/03/29 04:23:13;;;;;;;7.78;3.85;;;5.00;99.90;;;;;;4878582;29;20580;-74
2023/03/29 04:25:39;;;;;;;9.07;4.18;;;4.90;99.90;;;;;;4879124;29;20104;-73
2023/03/29 04:28:05;;;;;;;6.25;3.63;;;5.00;99.90;;;;;;4868991;29;20052;-74
2023/03/29 04:30:30;;;;;;;5.53;3.40;;;5.00;99.90;;;;;;4881589;29;20043;-74
2023/03/29 04:32:56;;;;;;;7.07;3.90;;;5.00;99.90;;;;;;4882474;29;20084;-74
2023/03/29 04:35:22;;;;;;;7.47;4.10;;;5.00;99.90;;;;;;4882512;29;20725;-74
2023/03/29 04:37:49;;;;;;;8.80;4.05;;;5.00;99.90;;;;;;4881215;29;20143;-74
2023/03/29 04:40:18;;;;;;;5.90;4.00;;;5.00;99.90;;;;;;4865604;29;20048;-74
2023/03/29 04:42:46;;;;;;;6.45;4.20;;;5.00;99.90;;;;;;4878318;29;20045;-74
2023/03/29 04:45:13;;;;;;;7.97;4.22;;;5.00;99.90;;;;;;4864927;29;20041;-74
2023/03/29 04:47:40;;;;;;;9.40;4.82;;;5.00;99.90;;;;;;4881062;29;20050;-74
2023/03/29 04:50:07;;;;;;;7.75;4.22;;;5.00;99.90;;;;;;4883336;29;20044;-74
2023/03/29 04:52:33;;;;;;;8.50;4.68;;;5.10;99.90;;;;;;4867705;29;20403;-73
2023/03/29 04:55:03;;;;;;;7.60;4.40;;;5.00;99.90;;;;;;4883401;29;20036;-73
2023/03/29 04:57:30;;;;;;;8.85;5.18;;;5.00;99.90;;;;;;4868404;29;20437;-74
2023/03/29 04:59:55;;;;;;;10.13;5.47;;;5.10;99.90;;;;;;4876726;29;20176;-74
2023/03/29 05:02:21;;;;;;;10.57;5.60;;;5.10;99.90;;;;;;4881613;29;20628;-74
2023/03/29 05:04:47;;;;;;;7.67;5.30;;;5.10;99.90;;;;;;4881420;29;20076;-74
2023/03/29 05:07:14;;;;;;;10.45;6.20;;;5.10;99.90;;;;;;4866177;29;20368;-74
2023/03/29 05:09:40;;;;;;;9.70;5.78;;;5.10;99.90;;;;;;4871253;29;20048;-74
2023/03/29 05:12:06;;;;;;;11.40;6.57;;;5.10;99.90;;;;;;4871656;29;20041;-74
2023/03/29 05:14:32;;;;;;;8.70;6.37;;;5.10;99.90;;;;;;4885749;29;20111;-74
2023/03/29 05:16:58;;;;;;;12.97;7.40;;;5.10;99.90;;;;;;4887225;29;20784;-74
2023/03/29 05:19:24;;;;;;;14.23;7.37;;;5.10;99.90;;;;;;4886954;29;20060;-74
2023/03/29 05:21:50;;;;;;;18.25;7.38;;;5.10;99.90;;;;;;4887823;29;20048;-74
2023/03/29 05:24:16;;;;;;;14.20;8.23;;;5.20;99.90;;;;;;4881909;29;20059;-74
2023/03/29 05:26:42;;;;;;;15.00;8.25;;;5.20;99.90;;;;;;4872404;29;20176;-74
2023/03/29 05:29:09;;;;;;;14.10;8.50;;;5.20;99.90;;;;;;4872738;29;20116;-74
2023/03/29 05:31:38;;;;;;;12.63;8.13;;;5.20;99.90;;;;;;4873057;29;20048;-74
2023/03/29 05:34:04;;;;;;;14.60;8.82;;;5.20;99.90;;;;;;4885162;29;20045;-74
2023/03/29 05:36:31;;;;;;;15.98;8.70;;;5.20;99.90;;;;;;4882163;29;20076;-74
2023/03/29 05:38:56;;;;;;;14.70;8.90;;;5.20;99.90;;;;;;4877607;29;20053;-74
2023/03/29 05:41:23;;;;;;;14.73;8.83;;;5.20;99.90;;;;;;4889297;29;20380;-74
2023/03/29 05:43:49;;;;;;;15.02;8.43;;;5.20;99.90;;;;;;4888610;29;20041;-75
2023/03/29 05:46:15;;;;;;;12.60;8.00;;;5.20;99.90;;;;;;4888812;29;20158;-75
2023/03/29 05:48:41;;;;;;;13.57;9.10;;;5.20;99.90;;;;;;4888929;29;20075;-75
2023/03/29 05:51:07;;;;;;;12.80;7.73;;;5.20;99.90;;;;;;4875064;29;20111;-74
2023/03/29 05:53:32;;;;;;;13.50;8.43;;;5.20;99.90;;;;;;4876110;29;20047;-74
2023/03/29 05:55:58;;;;;;;12.40;8.33;;;5.20;99.90;;;;;;4892273;29;20060;-74
2023/03/29 05:58:25;;;;;;;15.50;8.90;;;5.30;99.90;;;;;;4891612;29;20041;-74
2023/03/29 06:00:51;;;;;;;16.60;9.60;;;5.30;99.90;;;;;;4892216;29;20040;-74
2023/03/29 06:03:20;;;;;;;14.90;9.13;;;5.40;99.90;;;;;;4891807;29;20072;-74
2023/03/29 06:05:58;;;;;;;15.13;9.40;;;5.40;99.90;;;;;;4889187;29;20079;-74
2023/03/29 06:08:26;;;;;;;13.48;9.05;;;5.40;99.90;;;;;;4883497;29;20053;-74
2023/03/29 06:11:00;;;;;;;16.70;8.98;;;5.40;99.90;;;;;;4891334;29;20413;-74
2023/03/29 06:13:28;;;;;;;15.70;8.35;;;5.40;99.90;;;;;;4890582;29;20056;-74
2023/03/29 06:15:56;;;;;;;17.40;9.52;;;5.50;99.90;;;;;;4874481;29;20064;-74
2023/03/29 06:18:23;;;;;;;14.25;8.77;;;5.50;99.90;;;;;;4875210;29;20123;-74
2023/03/29 06:20:53;;;;;;;13.55;8.70;;;5.60;99.90;;;;;;4867057;29;20044;-74
2023/03/29 06:23:22;;;;;;;12.95;8.38;;;5.60;99.90;;;;;;4889126;29;20065;-74
2023/03/29 06:25:51;;;;;;;13.75;8.57;;;5.60;99.90;;;;;;4886228;29;20044;-74
2023/03/29 06:28:17;;;;;;;13.37;8.77;;;5.70;99.90;;;;;;4881569;29;20434;-74
2023/03/29 06:30:44;;;;;;;13.82;8.25;;;5.70;99.90;;;;;;4869911;29;20073;-74
2023/03/29 06:33:11;;;;;;;12.15;7.82;;;5.70;99.90;;;;;;4870386;29;20051;-74
2023/03/29 06:35:42;;;;;;;14.75;8.73;;;5.80;99.90;;;;;;4884910;29;20060;-74
2023/03/29 06:38:08;;;;;;;13.20;8.15;;;5.80;99.90;;;;;;4883870;29;20048;-74
2023/03/29 06:40:36;;;;;;;14.65;8.38;;;5.80;99.90;;;;;;4863473;29;20052;-74
2023/03/29 06:43:03;;;;;;;14.68;8.15;;;5.90;99.90;;;;;;4884582;29;20047;-74
2023/03/29 06:45:35;;;;;;;12.00;7.88;;;5.90;99.90;;;;;;4868519;29;20036;-74
2023/03/29 06:48:02;;;;;;;12.88;8.30;;;5.90;99.90;;;;;;4881046;29;20477;-74
2023/03/29 06:50:29;;;;;;;13.75;7.68;;;6.00;99.90;;;;;;4884174;29;20449;-74
2023/03/29 06:52:56;;;;;;;10.73;6.95;;;6.10;99.90;;;;;;4868417;29;20102;-74
2023/03/29 06:55:23;;;;;;;13.27;7.43;;;6.10;99.90;;;;;;4884694;29;20497;-74
2023/03/29 06:57:49;;;;;;;11.60;7.20;;;6.20;99.90;;;;;;4866577;29;20347;-74
2023/03/29 07:00:17;;;;;;;16.03;7.63;;;6.20;99.90;;;;;;4879469;29;20414;-75
2023/03/29 07:02:43;;;;;;;11.88;7.45;;;6.20;99.90;;;;;;4863899;29;20036;-75
2023/03/29 07:05:10;;;;;;;12.95;7.65;;;6.30;99.90;;;;;;4867455;29;20434;-74
2023/03/29 07:10:21;;;;;;;10.63;6.70;;;6.40;99.90;;;;;;4875035;29;20045;-75
2023/03/29 07:12:48;;;;;;;11.15;7.57;;;6.50;99.90;;;;;;4869287;29;20052;-75
2023/03/29 07:15:14;;;;;;;15.02;7.85;;;6.50;99.90;;;;;;4866632;29;20052;-75
2023/03/29 07:17:40;;;;;;;14.15;8.02;;;6.60;99.90;;;;;;4881238;29;20381;-75
2023/03/29 07:20:12;;;;;;;11.60;7.03;;;6.70;99.90;;;;;;4880105;29;20072;-75
2023/03/29 07:22:43;;;;;;;13.43;7.07;;;6.70;99.90;;;;;;4875102;29;20041;-73
2023/03/29 07:25:11;;;;;;;11.57;7.38;;;6.80;99.90;;;;;;4857660;29;20032;-74
2023/03/29 07:27:38;;;;;;;11.55;7.10;;;6.90;99.90;;;;;;4876146;29;20045;-74
2023/03/29 07:30:09;;;;;;;12.00;7.18;;;7.00;99.90;;;;;;4871286;29;20112;-74
2023/03/29 07:32:40;;;;;;;11.02;7.40;;;7.00;99.90;;;;;;4870052;29;20635;-75
2023/03/29 07:35:07;;;;;;;12.82;7.60;;;7.10;99.90;;;;;;4879296;29;20040;-75
2023/03/29 07:37:36;;;;;;;11.80;6.15;;;7.10;99.90;;;;;;4873654;29;20048;-75
2023/03/29 07:40:07;;;;;;;11.95;7.00;;;7.20;99.90;;;;;;4864287;29;20032;-75
2023/03/29 07:42:37;;;;;;;9.35;6.63;;;7.20;99.90;;;;;;4872553;29;20040;-75
2023/03/29 07:45:04;;;;;;;11.20;6.88;;;7.30;99.90;;;;;;4861061;29;20036;-75
2023/03/29 07:47:30;;;;;;;11.98;6.63;;;7.30;99.90;;;;;;4865424;29;20096;-75
2023/03/29 07:49:57;;;;;;;9.30;6.43;;;7.30;99.90;;;;;;4881228;29;20068;-75
2023/03/29 07:52:24;;;;;;;11.95;6.63;;;7.40;99.90;;;;;;4861310;29;20037;-75
2023/03/29 07:54:49;;;;;;;11.38;7.15;;;7.40;99.90;;;;;;4866495;29;20040;-75
2023/03/29 07:57:15;;;;;;;11.10;7.13;;;7.40;99.90;;;;;;4879344;29;20107;-75
2023/03/29 07:59:41;;;;;;;11.83;6.93;;;7.40;99.90;;;;;;4864409;29;20044;-75
2023/03/29 08:02:09;;;;;;;14.13;6.73;;;7.50;99.90;;;;;;4879676;29;20067;-75
2023/03/29 08:04:35;;;;;;;12.68;7.45;;;7.50;99.90;;;;;;4878160;29;20131;-75
2023/03/29 08:07:01;;;;;;;10.27;6.93;;;7.60;99.90;;;;;;4879400;29;20506;-75
2023/03/29 08:09:27;;;;;;;9.87;7.13;;;7.70;99.90;;;;;;4865782;29;20048;-75
2023/03/29 08:11:52;;;;;;;11.63;7.23;;;7.70;99.90;;;;;;4864202;29;20123;-74
2023/03/29 08:14:20;;;;;;;11.00;6.87;;;7.80;99.90;;;;;;4878633;29;20198;-75
2023/03/29 08:16:46;;;;;;;11.57;7.05;;;7.80;99.90;;;;;;4875681;29;20069;-75
2023/03/29 08:19:13;;;;;;;13.17;7.00;;;7.90;99.90;;;;;;4860389;29;20056;-74
2023/03/29 08:21:39;;;;;;;11.73;7.68;;;7.90;99.90;;;;;;4872235;29;20093;-75
2023/03/29 08:24:05;;;;;;;11.50;7.05;;;8.00;99.90;;;;;;4873857;29;20049;-75
2023/03/29 08:26:32;;;;;;;10.83;6.90;;;8.10;99.90;;;;;;4861636;29;20104;-75
2023/03/29 08:28:57;;;;;;;13.90;7.30;;;8.10;99.90;;;;;;4872375;29;20115;-76
2023/03/29 08:31:23;;;;;;;12.30;7.23;;;8.20;99.90;;;;;;4892957;29;20193;-77
2023/03/29 08:33:49;;;;;;;11.13;7.67;;;8.30;99.90;;;;;;4879284;29;20040;-75
2023/03/29 08:36:15;;;;;;;12.97;7.13;;;8.40;99.90;;;;;;4880702;29;20153;-76
2023/03/29 08:38:40;;;;;;;12.90;7.40;;;8.50;99.90;;;;;;4861343;29;20083;-76
2023/03/29 08:41:24;;;;;;;12.27;7.07;;;8.60;99.90;;;;;;4860648;29;20052;-74
2023/03/29 08:43:56;;;;;;;11.02;7.90;;;8.70;99.90;;;;;;4881259;29;20052;-75
2023/03/29 08:46:33;;;;;;;11.70;7.28;;;8.70;99.90;;;;;;4883201;29;20055;-76
2023/03/29 08:49:01;;;;;;;13.80;7.63;;;8.80;99.90;;;;;;4867475;29;20520;-75
2023/03/29 08:51:42;;;;;;;12.65;6.88;;;8.90;99.90;;;;;;4876686;29;20055;-75
2023/03/29 08:54:35;;;;;;;12.40;7.50;;;9.00;99.90;;;;;;4874267;29;20060;-75
2023/03/29 08:57:10;;;;;;;11.55;7.35;;;9.10;99.90;;;;;;4883022;29;20056;-75
2023/03/29 08:59:36;;;;;;;13.40;6.85;;;9.20;99.90;;;;;;4867659;29;20060;-75
2023/03/29 09:02:09;;;;;;;13.17;7.60;;;9.20;99.90;;;;;;4867179;29;20041;-76
2023/03/29 09:04:36;;;;;;;11.30;7.03;;;9.30;99.90;;;;;;4880455;29;20296;-75
2023/03/29 09:07:02;;;;;;;12.55;7.45;;;9.40;99.90;;;;;;4865873;29;20045;-75
2023/03/29 09:09:32;;;;;;;13.45;7.18;;;9.50;99.90;;;;;;4883187;29;20048;-74
2023/03/29 09:12:31;;;;;;;15.88;7.72;;;9.60;99.90;;;;;;4879651;29;20549;-74
2023/03/29 09:15:13;;;;;;;12.43;7.78;;;9.70;99.90;;;;;;4881273;29;20665;-75
2023/03/29 09:17:52;;;;;;;10.27;7.20;;;9.80;99.90;;;;;;4865964;29;20055;-75
2023/03/29 09:20:27;;;;;;;15.10;7.72;;;9.80;99.90;;;;;;4882753;29;20078;-74
2023/03/29 09:23:01;;;;;;;13.95;7.28;;;10.00;99.90;;;;;;4878922;29;20047;-74
2023/03/29 09:25:33;;;;;;;14.50;8.23;;;10.10;99.90;;;;;;4863514;29;20135;-75
2023/03/29 09:28:25;;;;;;;11.75;8.18;;;10.20;99.90;;;;;;4881010;29;20041;-74
2023/03/29 09:30:58;;;;;;;16.48;8.00;;;10.30;99.90;;;;;;4879171;29;20061;-75
2023/03/29 09:33:41;;;;;;;13.18;8.40;;;10.30;99.90;;;;;;4885163;29;20040;-74
2023/03/29 09:36:19;;;;;;;15.50;8.50;;;10.30;99.90;;;;;;4882672;29;20052;-74
2023/03/29 09:38:49;;;;;;;17.60;9.43;;;10.40;99.90;;;;;;4882944;29;20379;-74
2023/03/29 09:41:33;;;;;;;14.53;8.77;;;10.40;99.90;;;;;;4885372;29;20967;-75
2023/03/29 09:44:06;;;;;;;16.97;8.23;;;10.50;99.90;;;;;;4899385;29;20292;-74
2023/03/29 09:46:40;;;;;;;14.90;9.32;;;10.50;99.90;;;;;;4866142;29;20313;-74
2023/03/29 09:49:39;;;;;;;19.37;9.17;;;10.50;99.90;;;;;;4881035;29;20051;-74
2023/03/29 09:52:12;;;;;;;17.00;8.73;;;10.50;99.90;;;;;;4862933;29;20292;-75
2023/03/29 09:54:38;;;;;;;17.20;9.30;;;10.50;99.90;;;;;;4883957;29;20296;-74
2023/03/29 09:57:05;;;;;;;12.63;8.50;;;10.50;99.90;;;;;;4863910;29;20309;-74
2023/03/29 09:59:31;;;;;;;13.80;8.80;;;10.50;99.90;;;;;;4866017;29;20127;-74
2023/03/29 10:02:11;;;;;;;17.50;10.60;;;10.60;99.90;;;;;;4884051;29;20779;-74
2023/03/29 10:04:38;;;;;;;15.50;9.43;;;10.60;99.90;;;;;;4863895;29;20496;-75
2023/03/29 10:07:14;;;;;;;21.73;9.50;;;10.70;99.90;;;;;;4865722;29;20809;-74
2023/03/29 10:09:43;;;;;;;19.77;10.10;;;10.90;99.90;;;;;;4873173;29;20824;-74
2023/03/29 10:12:11;;;;;;;17.33;10.07;;;11.10;99.90;;;;;;4875826;29;20379;-74
2023/03/29 10:14:42;;;;;;;19.63;10.13;;;11.30;99.90;;;;;;4861281;29;20376;-74
2023/03/29 10:17:21;;;;;;;23.20;10.87;;;11.30;99.90;;;;;;4860049;29;20325;-75
2023/03/29 10:19:55;;;;;;;21.10;11.00;;;11.40;99.90;;;;;;4869731;29;20775;-74
2023/03/29 10:22:30;;;;;;;20.03;12.20;;;11.60;99.90;;;;;;4872958;29;20376;-74
2023/03/29 10:24:56;;;;;;;18.95;12.07;;;11.70;99.90;;;;;;4893029;29;20819;-75
2023/03/29 10:27:31;;;;;;;18.87;11.60;;;11.70;99.90;;;;;;4877145;29;20104;-74
2023/03/29 10:30:13;;;;;;;22.52;12.27;;;11.80;99.90;;;;;;4876385;29;20302;-74
2023/03/29 10:32:39;;;;;;;18.00;11.80;;;11.90;99.90;;;;;;4873707;29;20108;-74
2023/03/29 10:35:21;;;;;;;18.73;11.50;;;12.00;99.90;;;;;;4877906;29;20279;-74
2023/03/29 10:37:52;;;;;;;21.13;12.80;;;12.10;99.90;;;;;;4862960;29;20761;-74
2023/03/29 10:40:25;;;;;;;19.37;12.03;;;12.20;99.90;;;;;;4857263;29;20295;-75
2023/03/29 10:42:52;;;;;;;22.00;12.77;;;12.30;99.90;;;;;;4867132;29;20836;-75
2023/03/29 10:45:24;;;;;;;20.43;12.53;;;12.40;99.90;;;;;;4866601;29;20296;-74
2023/03/29 10:47:50;;;;;;;18.50;12.70;;;12.50;99.90;;;;;;4866397;29;20293;-75
2023/03/29 10:50:16;;;;;;;19.87;12.67;;;12.60;99.90;;;;;;4879589;29;20352;-74
2023/03/29 10:52:42;;;;;;;19.73;11.60;;;12.70;99.90;;;;;;4865924;29;20104;-75
2023/03/29 10:55:12;;;;;;;17.70;11.80;;;12.70;99.90;;;;;;4866180;29;20068;-75
2023/03/29 10:57:56;;;;;;;19.07;12.53;;;12.80;99.90;;;;;;4879831;29;20324;-75
2023/03/29 11:00:33;;;;;;;17.37;11.97;;;12.90;99.90;;;;;;4878175;29;20289;-75
2023/03/29 11:03:18;;;;;;;20.77;12.70;;;12.90;99.90;;;;;;4881007;29;20295;-75
2023/03/29 11:05:56;;;;;;;19.07;11.57;;;13.10;99.90;;;;;;4883170;29;20316;-75
2023/03/29 11:08:33;;;;;;;23.73;12.53;;;13.10;99.90;;;;;;4883438;29;20296;-75
2023/03/29 11:11:30;;;;;;;19.67;13.00;;;13.00;99.90;;;;;;4867254;29;20297;-75
2023/03/29 11:14:10;;;;;;;18.77;12.00;;;12.90;99.90;;;;;;4883662;29;20293;-75
2023/03/29 11:17:04;;;;;;;20.50;12.70;;;12.90;99.90;;;;;;4867263;29;20363;-76
2023/03/29 11:20:02;;;;;;;21.20;12.80;;;13.00;99.90;;;;;;4870777;29;20297;-75
2023/03/29 11:22:46;;;;;;;50.57;19.07;;;12.90;99.90;;;;;;4841896;29;20333;-76
2023/03/29 11:25:28;;;;;;;19.57;12.57;;;12.90;99.90;;;;;;4875385;29;20323;-75
2023/03/29 11:28:30;;;;;;;24.53;13.00;;;13.00;99.90;;;;;;4873566;29;20380;-74
2023/03/29 11:31:14;;;;;;;20.93;13.77;;;13.10;99.90;;;;;;4860568;29;20297;-75
2023/03/29 11:34:21;;;;;;;22.83;12.73;;;13.00;99.90;;;;;;4875510;29;20288;-75
2023/03/29 11:36:59;;;;;;;20.30;13.50;;;13.00;99.90;;;;;;4860212;29;20372;-75
2023/03/29 11:40:04;;;;;;;20.27;12.87;;;13.00;99.90;;;;;;4878342;29;20277;-75
2023/03/29 11:42:33;;;;;;;22.10;13.37;;;13.20;99.90;;;;;;4854771;29;20380;-75
2023/03/29 11:45:01;;;;;;;22.40;13.43;;;13.30;99.90;;;;;;4877839;29;20281;-74
2023/03/29 11:47:32;;;;;;;19.77;12.57;;;13.50;99.90;;;;;;4877380;29;21148;-74
2023/03/29 11:50:05;;;;;;;18.10;12.53;;;13.60;99.90;;;;;;4876590;29;20289;-75
2023/03/29 11:52:43;;;;;;;22.60;14.20;;;13.60;99.90;;;;;;4864043;29;20289;-75
2023/03/29 11:55:17;;;;;;;19.87;13.60;;;13.60;99.90;;;;;;4879113;29;20285;-75
2023/03/29 11:58:00;;;;;;;24.60;13.70;;;13.60;99.90;;;;;;4852866;29;20281;-75
2023/03/29 12:00:39;;;;;;;24.20;13.83;;;13.60;99.90;;;;;;4874038;29;20296;-74
2023/03/29 12:03:19;;;;;;;22.10;13.60;;;13.50;99.90;;;;;;4878456;29;20300;-74
2023/03/29 12:05:49;;;;;;;21.80;14.67;;;13.30;99.90;;;;;;4877111;29;20339;-75
2023/03/29 12:08:21;;;;;;;24.30;15.10;;;13.30;99.90;;;;;;4878142;29;20753;-74
2023/03/29 12:10:55;;;;;;;22.33;15.10;;;13.40;99.90;;;;;;4858982;29;20311;-75
2023/03/29 12:13:27;;;;;;;24.23;14.60;;;13.30;99.90;;;;;;4862130;29;20296;-75
2023/03/29 12:16:05;;;;;;;23.13;14.43;;;13.30;99.90;;;;;;4877979;29;20300;-75
2023/03/29 12:18:47;;;;;;;18.57;14.50;;;13.30;99.90;;;;;;4877664;29;20281;-74
2023/03/29 12:21:20;;;;;;;23.30;14.57;;;13.30;99.90;;;;;;4873721;29;20301;-75
2023/03/29 12:23:47;;;;;;;22.27;14.90;;;13.20;99.90;;;;;;4858980;29;20805;-74
2023/03/29 12:26:19;;;;;;;20.67;14.47;;;13.10;99.90;;;;;;4878495;29;20340;-75
2023/03/29 12:29:04;;;;;;;21.77;14.80;;;13.10;99.90;;;;;;4877241;29;20341;-75
2023/03/29 12:31:50;;;;;;;21.42;16.02;;;13.00;99.90;;;;;;4878507;29;20373;-75
2023/03/29 12:34:46;;;;;;;21.93;15.90;;;13.00;99.90;;;;;;4865063;29;20064;-75
2023/03/29 12:38:07;;;;;;;24.37;16.20;;;13.00;99.90;;;;;;4864602;29;20292;-75
2023/03/29 12:40:44;;;;;;;22.40;16.87;;;12.90;99.90;;;;;;4752991;30;20297;-75
2023/03/29 12:43:22;;;;;;;24.43;16.90;;;12.90;99.90;;;;;;4866385;29;20296;-75
2023/03/29 12:46:05;;;;;;;28.53;18.30;;;13.00;99.90;;;;;;4879472;29;20327;-75
2023/03/29 12:48:32;;;;;;;26.30;17.37;;;13.10;99.90;;;;;;4878193;29;20292;-76
2023/03/29 12:51:01;;;;;;;22.77;17.20;;;13.20;99.90;;;;;;4877016;29;20785;-75
2023/03/29 12:53:50;;;;;;;23.40;16.40;;;13.20;99.90;;;;;;4863324;29;20821;-75
2023/03/29 12:56:20;;;;;;;23.70;17.30;;;13.20;99.90;;;;;;4868229;29;20285;-75
2023/03/29 12:59:09;;;;;;;23.37;16.73;;;13.20;99.90;;;;;;4877640;29;20289;-75
2023/03/29 13:01:42;;;;;;;23.43;16.17;;;13.20;99.90;;;;;;4877968;29;20289;-75
2023/03/29 13:04:17;;;;;;;23.57;16.40;;;13.10;99.90;;;;;;4879295;29;20300;-75
2023/03/29 13:06:45;;;;;;;21.27;15.47;;;13.10;99.90;;;;;;4865253;29;20398;-75
2023/03/29 13:09:35;;;;;;;22.47;16.17;;;13.10;99.90;;;;;;4870371;29;20288;-74
2023/03/29 13:12:10;;;;;;;25.00;16.63;;;13.10;99.90;;;;;;4870697;29;20293;-75